Terminal Aerodrome Forecast
Issued by NWS

Home | Current Version | Previous Version | Text Only | Print | Product List | Glossary On
Versions: 1 2 3 4 5 6 7 8 9 10 11 12 13 14 15 16 17
000
FTUS46 KMTR 221100
TAFMRY
TAF
KMRY 221138Z 2212/2312 00000KT 3SM BR OVC002
      TEMPO 2212/2216 1/4SM FG
     FM221900 30005KT P6SM BKN007 OVC012
     FM222100 30005KT P6SM SCT007 BKN012
     FM230200 VRB03KT P6SM OVC012
     FM230800 VRB03KT 4SM BR OVC006=

USA.gov is the U.S. government's official web portal to all federal, state and local government web resources and services.